Time;durP1;ratioP1;P1;durP2;ratioP2;P2;SDS_P1;SDS_P2;PMS_P1;PMS_P2;Temp;Humidity;BMP_temperature;BMP_pressure;BME280_temperature;BME280_humidity;BME280_pressure;Samples;Min_cycle;Max_cycle;Signal;HPM_P1;HPM_P2
2022/11/11 00:02:03;;;;;;;;;;;14.20;53.50;;;;;;5091594;28;19908;-85
2022/11/11 00:04:29;;;;;;;;;;;14.20;53.60;;;;;;5091245;28;19978;-88
2022/11/11 00:06:55;;;;;;;;;;;14.30;53.80;;;;;;5092699;28;19912;-87
2022/11/11 00:09:20;;;;;;;;;;;14.30;53.70;;;;;;5096541;28;20016;-87
2022/11/11 00:11:46;;;;;;;;;;;14.30;53.70;;;;;;5091572;28;19919;-88
2022/11/11 00:14:11;;;;;;;;;;;14.20;53.50;;;;;;5092356;28;19920;-88
2022/11/11 00:25:08;;;;;;;;;;;14.10;53.70;;;;;;5091651;28;20254;-88
2022/11/11 00:27:34;;;;;;;;;;;14.10;53.50;;;;;;5089698;28;19908;-87
2022/11/11 00:30:00;;;;;;;;;;;14.00;53.30;;;;;;5091289;28;19923;-88
2022/11/11 00:32:27;;;;;;;;;;;14.00;53.30;;;;;;5092575;28;19916;-88
2022/11/11 00:37:38;;;;;;;;;;;14.00;53.50;;;;;;5088181;28;20015;-87
2022/11/11 00:40:04;;;;;;;;;;;13.90;53.90;;;;;;5088711;28;20393;-88
2022/11/11 00:42:30;;;;;;;;;;;14.00;54.00;;;;;;5091079;28;20398;-89
2022/11/11 00:44:55;;;;;;;;;;;13.90;54.10;;;;;;5083356;28;19999;-86
2022/11/11 00:52:50;;;;;;;;;;;14.10;54.40;;;;;;5089953;28;19946;-88
2022/11/11 00:55:16;;;;;;;;;;;14.20;54.10;;;;;;5079650;28;20378;-87
2022/11/11 00:57:41;;;;;;;;;;;14.20;54.10;;;;;;5079988;28;19912;-89
2022/11/11 01:00:07;;;;;;;;;;;14.20;54.00;;;;;;5083990;28;20306;-87
2022/11/11 01:02:32;;;;;;;;;;;14.30;54.00;;;;;;5084254;28;20263;-86
2022/11/11 01:04:58;;;;;;;;;;;14.30;53.80;;;;;;5078066;28;19920;-86
2022/11/11 01:07:24;;;;;;;;;;;14.30;53.60;;;;;;5081062;28;19924;-88
2022/11/11 01:09:50;;;;;;;;;;;14.30;53.50;;;;;;5083885;28;19915;-87
2022/11/11 01:12:15;;;;;;;;;;;14.30;53.50;;;;;;5080924;28;19919;-85
2022/11/11 01:14:41;;;;;;;;;;;14.40;53.40;;;;;;5077776;28;20023;-88
2022/11/11 01:17:08;;;;;;;;;;;14.30;53.40;;;;;;5083893;28;19920;-88
2022/11/11 01:19:34;;;;;;;;;;;14.30;53.50;;;;;;5084984;28;19917;-87
2022/11/11 01:21:59;;;;;;;;;;;14.40;53.40;;;;;;5077080;28;19923;-87
2022/11/11 01:24:25;;;;;;;;;;;14.40;53.30;;;;;;5074403;28;19916;-87
2022/11/11 01:26:50;;;;;;;;;;;14.40;53.20;;;;;;5083776;28;19919;-87
2022/11/11 01:29:16;;;;;;;;;;;14.40;53.10;;;;;;5081888;28;19919;-88
2022/11/11 01:31:41;;;;;;;;;;;14.40;53.10;;;;;;5081452;28;19923;-87
2022/11/11 01:34:07;;;;;;;;;;;14.50;53.10;;;;;;5078646;28;19924;-88
2022/11/11 01:36:32;;;;;;;;;;;14.40;53.10;;;;;;5084396;28;19920;-89
2022/11/11 01:38:59;;;;;;;;;;;14.40;53.00;;;;;;5083497;28;19947;-88
2022/11/11 01:41:31;;;;;;;;;;;14.50;52.80;;;;;;5079793;28;20014;-88
2022/11/11 01:44:12;;;;;;;;;;;14.40;52.90;;;;;;5086833;28;19981;-87
2022/11/11 01:47:01;;;;;;;;;;;14.40;52.90;;;;;;5077732;28;20361;-85
2022/11/11 01:49:30;;;;;;;;;;;14.40;52.90;;;;;;5077958;28;19912;-86
2022/11/11 01:51:56;;;;;;;;;;;14.40;52.90;;;;;;5075184;28;19940;-87
2022/11/11 01:54:26;;;;;;;;;;;14.40;52.80;;;;;;5080108;28;20344;-87
2022/11/11 01:56:55;;;;;;;;;;;14.40;52.90;;;;;;5075832;28;19912;-87
2022/11/11 01:59:21;;;;;;;;;;;14.40;52.90;;;;;;5080872;28;19931;-86
2022/11/11 02:01:46;;;;;;;;;;;14.40;52.80;;;;;;5080184;28;19912;-87
2022/11/11 02:06:58;;;;;;;;;;;14.30;52.70;;;;;;5075786;28;19919;-84
2022/11/11 02:09:24;;;;;;;;;;;14.30;52.70;;;;;;5076623;28;20424;-86
2022/11/11 02:14:38;;;;;;;;;;;14.30;52.90;;;;;;5070567;28;19982;-87
2022/11/11 02:17:12;;;;;;;;;;;14.20;53.20;;;;;;5083395;28;20304;-87
2022/11/11 02:19:44;;;;;;;;;;;14.30;53.20;;;;;;5077980;28;20007;-88
2022/11/11 02:22:12;;;;;;;;;;;14.30;52.80;;;;;;5081820;28;19912;-88
2022/11/11 02:24:39;;;;;;;;;;;14.30;52.60;;;;;;5070843;28;20283;-86
2022/11/11 02:27:06;;;;;;;;;;;14.30;52.60;;;;;;5076731;28;19919;-88
2022/11/11 02:29:32;;;;;;;;;;;14.30;53.10;;;;;;5076911;28;19959;-87
2022/11/11 02:31:57;;;;;;;;;;;14.30;53.00;;;;;;5092122;28;19919;-86
2022/11/11 02:34:33;;;;;;;;;;;14.30;52.90;;;;;;5089524;28;19969;-88
2022/11/11 02:36:58;;;;;;;;;;;14.40;52.80;;;;;;5088715;28;19912;-87
2022/11/11 02:39:25;;;;;;;;;;;14.30;52.80;;;;;;5074933;28;19920;-87
2022/11/11 02:41:56;;;;;;;;;;;14.30;52.60;;;;;;5069637;28;20390;-87
2022/11/11 02:44:22;;;;;;;;;;;14.30;52.60;;;;;;5079250;28;19952;-87
2022/11/11 02:46:48;;;;;;;;;;;14.30;52.40;;;;;;5089043;28;19930;-87
2022/11/11 02:49:13;;;;;;;;;;;14.30;52.50;;;;;;5089166;28;19908;-87
2022/11/11 02:51:39;;;;;;;;;;;14.30;52.60;;;;;;5090805;28;20495;-88
2022/11/11 02:54:04;;;;;;;;;;;14.30;52.60;;;;;;5093793;28;19971;-88
2022/11/11 02:59:14;;;;;;;;;;;14.30;52.80;;;;;;5094077;28;20361;-88
2022/11/11 03:01:40;;;;;;;;;;;14.30;52.70;;;;;;5088099;28;19916;-88
2022/11/11 03:04:05;;;;;;;;;;;14.30;52.50;;;;;;5076249;28;19912;-88
2022/11/11 03:06:31;;;;;;;;;;;14.30;52.30;;;;;;5082311;28;19927;-87
2022/11/11 03:08:57;;;;;;;;;;;14.20;52.30;;;;;;5081243;28;19912;-88
2022/11/11 03:11:28;;;;;;;;;;;14.20;52.40;;;;;;5097622;28;20023;-87
2022/11/11 03:13:57;;;;;;;;;;;14.20;52.30;;;;;;5087115;28;20299;-87
2022/11/11 03:19:07;;;;;;;;;;;14.10;52.50;;;;;;5074109;28;20006;-87
2022/11/11 03:21:32;;;;;;;;;;;14.00;52.50;;;;;;5072282;28;19972;-87
2022/11/11 03:23:58;;;;;;;;;;;14.10;52.60;;;;;;5089885;28;19908;-89
2022/11/11 03:26:23;;;;;;;;;;;14.00;52.60;;;;;;5093470;28;19908;-86
2022/11/11 03:28:49;;;;;;;;;;;14.10;52.90;;;;;;5092687;28;19908;-88
2022/11/11 03:31:15;;;;;;;;;;;14.00;52.90;;;;;;5094979;28;19946;-87
2022/11/11 03:33:40;;;;;;;;;;;14.20;53.00;;;;;;5094430;28;19920;-87
2022/11/11 03:36:06;;;;;;;;;;;14.20;52.80;;;;;;5099084;28;20167;-87
2022/11/11 03:38:31;;;;;;;;;;;14.20;52.80;;;;;;5094980;28;19943;-86
2022/11/11 03:40:57;;;;;;;;;;;14.30;52.70;;;;;;5092174;28;19962;-88
2022/11/11 03:43:24;;;;;;;;;;;14.30;52.60;;;;;;5096657;28;19935;-89
2022/11/11 03:45:53;;;;;;;;;;;14.30;52.60;;;;;;5079943;28;20015;-87
2022/11/11 03:48:19;;;;;;;;;;;14.30;52.70;;;;;;5072420;28;19913;-86
2022/11/11 03:50:46;;;;;;;;;;;14.30;52.60;;;;;;5089335;28;19923;-86
2022/11/11 03:53:13;;;;;;;;;;;14.30;52.60;;;;;;5071938;28;20466;-87
2022/11/11 03:55:39;;;;;;;;;;;14.30;52.50;;;;;;5073275;28;19913;-85
2022/11/11 03:58:04;;;;;;;;;;;14.40;52.50;;;;;;5073993;28;19912;-86
2022/11/11 04:00:30;;;;;;;;;;;14.40;52.40;;;;;;5078018;28;19919;-87
2022/11/11 04:11:42;;;;;;;;;;;14.40;52.70;;;;;;5089617;28;20007;-86
2022/11/11 04:16:53;;;;;;;;;;;14.50;52.40;;;;;;5079830;28;20390;-88
2022/11/11 04:22:03;;;;;;;;;;;14.60;52.20;;;;;;5076857;28;19939;-87
2022/11/11 04:27:14;;;;;;;;;;;14.60;52.20;;;;;;5075702;28;19923;-87
2022/11/11 04:29:39;;;;;;;;;;;14.60;52.00;;;;;;5071414;28;19916;-85
2022/11/11 04:34:51;;;;;;;;;;;14.70;51.80;;;;;;5096219;28;20019;-89
2022/11/11 04:37:17;;;;;;;;;;;14.70;51.70;;;;;;5094170;28;19951;-88
2022/11/11 04:42:28;;;;;;;;;;;14.80;51.70;;;;;;5112891;28;20246;-88
2022/11/11 04:47:37;;;;;;;;;;;14.80;51.40;;;;;;5073213;28;19927;-88
2022/11/11 04:50:03;;;;;;;;;;;14.80;51.30;;;;;;5085449;28;19912;-88
2022/11/11 04:52:29;;;;;;;;;;;14.80;51.10;;;;;;5091413;28;19920;-87
2022/11/11 04:57:43;;;;;;;;;;;14.90;51.20;;;;;;5088697;28;19924;-86
2022/11/11 05:00:10;;;;;;;;;;;14.80;51.10;;;;;;5084316;28;19942;-88
2022/11/11 05:05:20;;;;;;;;;;;14.90;51.00;;;;;;5092229;28;19919;-87
2022/11/11 05:10:30;;;;;;;;;;;14.80;51.00;;;;;;5071536;28;19915;-88
2022/11/11 05:21:19;;;;;;;;;;;14.80;51.00;;;;;;5070178;28;19924;-87
2022/11/11 05:21:21;;;;;;;;;;;14.70;51.00;;;;;;5082805;28;20514;-87
2022/11/11 05:26:30;;;;;;;;;;;14.70;51.00;;;;;;5086167;28;20561;-88
2022/11/11 05:28:56;;;;;;;;;;;14.70;51.00;;;;;;5089977;28;19913;-86
2022/11/11 05:31:22;;;;;;;;;;;14.70;51.00;;;;;;5076523;28;19956;-87
2022/11/11 05:33:47;;;;;;;;;;;14.70;51.00;;;;;;5081048;28;19925;-88
2022/11/11 05:36:15;;;;;;;;;;;14.70;51.20;;;;;;5090739;28;24048;-86
2022/11/11 05:38:40;;;;;;;;;;;14.70;51.10;;;;;;5088860;28;19952;-86
2022/11/11 05:41:06;;;;;;;;;;;14.70;51.00;;;;;;5081577;28;19912;-88
2022/11/11 05:43:32;;;;;;;;;;;14.70;51.00;;;;;;5078570;28;20015;-88
2022/11/11 05:45:57;;;;;;;;;;;14.60;50.90;;;;;;5072367;28;19955;-88
2022/11/11 05:48:23;;;;;;;;;;;14.70;50.90;;;;;;5080348;28;20471;-86
2022/11/11 05:50:48;;;;;;;;;;;14.70;50.90;;;;;;5072640;28;19970;-88
2022/11/11 05:53:14;;;;;;;;;;;14.60;50.90;;;;;;5079394;28;19920;-88
2022/11/11 05:55:39;;;;;;;;;;;14.60;50.90;;;;;;5082320;28;19916;-87
2022/11/11 05:58:05;;;;;;;;;;;14.60;51.00;;;;;;5081144;28;19932;-88
2022/11/11 06:00:30;;;;;;;;;;;14.50;51.10;;;;;;5081482;28;19924;-86
2022/11/11 06:03:03;;;;;;;;;;;14.50;51.00;;;;;;5074257;28;19991;-89
2022/11/11 06:05:29;;;;;;;;;;;14.50;51.10;;;;;;5083843;28;19932;-87
2022/11/11 06:07:59;;;;;;;;;;;14.50;51.10;;;;;;5086666;28;19912;-87
2022/11/11 06:10:31;;;;;;;;;;;14.50;51.00;;;;;;5083409;28;19920;-87
2022/11/11 06:13:09;;;;;;;;;;;14.50;50.90;;;;;;5071723;28;20379;-88
2022/11/11 06:15:44;;;;;;;;;;;14.40;50.80;;;;;;5077739;28;20010;-88
2022/11/11 06:18:13;;;;;;;;;;;14.40;50.80;;;;;;5081826;28;19912;-88
2022/11/11 06:20:41;;;;;;;;;;;14.30;50.90;;;;;;5079782;28;19970;-87
2022/11/11 06:23:07;;;;;;;;;;;14.30;51.40;;;;;;5081199;28;20050;-88
2022/11/11 06:28:17;;;;;;;;;;;14.30;51.20;;;;;;5086901;28;19965;-86
2022/11/11 06:30:46;;;;;;;;;;;14.30;51.30;;;;;;5085042;28;19924;-85
2022/11/11 06:33:20;;;;;;;;;;;14.30;51.20;;;;;;5084267;28;19924;-88
2022/11/11 06:35:46;;;;;;;;;;;14.30;51.40;;;;;;5081705;28;19946;-88
2022/11/11 06:38:11;;;;;;;;;;;14.30;51.30;;;;;;5088043;28;19915;-88
2022/11/11 06:40:37;;;;;;;;;;;14.30;51.20;;;;;;5089819;28;19949;-88
2022/11/11 06:43:03;;;;;;;;;;;14.30;51.00;;;;;;5080630;28;19916;-86
2022/11/11 06:45:37;;;;;;;;;;;14.30;51.00;;;;;;5082861;28;19917;-89
2022/11/11 06:48:04;;;;;;;;;;;14.20;51.00;;;;;;5080203;28;19920;-84
2022/11/11 06:50:30;;;;;;;;;;;14.20;51.10;;;;;;5078990;28;20402;-88
2022/11/11 06:53:02;;;;;;;;;;;14.20;51.30;;;;;;5071008;28;19951;-88
2022/11/11 06:55:30;;;;;;;;;;;14.20;51.40;;;;;;5080699;28;20435;-87
2022/11/11 06:58:02;;;;;;;;;;;14.20;51.40;;;;;;5086267;28;20038;-88
2022/11/11 07:00:28;;;;;;;;;;;14.30;51.30;;;;;;5079455;28;19927;-87
2022/11/11 07:02:54;;;;;;;;;;;14.30;51.30;;;;;;5077305;28;20679;-88
2022/11/11 07:05:20;;;;;;;;;;;14.30;51.40;;;;;;5079873;28;19938;-85
2022/11/11 07:07:48;;;;;;;;;;;14.30;51.50;;;;;;5079930;28;19913;-87
2022/11/11 07:10:15;;;;;;;;;;;14.30;51.50;;;;;;5080891;28;19920;-88
2022/11/11 07:12:41;;;;;;;;;;;14.40;51.70;;;;;;5079536;28;19927;-87
2022/11/11 07:15:07;;;;;;;;;;;14.50;51.60;;;;;;5086627;28;19920;-88
2022/11/11 07:17:32;;;;;;;;;;;14.50;51.60;;;;;;5081069;28;19908;-87
2022/11/11 07:19:58;;;;;;;;;;;14.60;51.60;;;;;;5078014;28;19925;-86
2022/11/11 07:22:24;;;;;;;;;;;14.70;51.60;;;;;;5081465;28;19916;-88
2022/11/11 07:24:49;;;;;;;;;;;14.80;51.50;;;;;;5074907;28;19954;-85
2022/11/11 07:27:15;;;;;;;;;;;14.90;51.40;;;;;;5083207;28;19912;-88
2022/11/11 07:29:41;;;;;;;;;;;15.00;51.40;;;;;;5076434;28;19920;-87
2022/11/11 07:32:09;;;;;;;;;;;15.10;51.30;;;;;;5069016;28;19951;-87
2022/11/11 07:34:34;;;;;;;;;;;15.10;51.20;;;;;;5085428;28;19932;-87
2022/11/11 07:37:00;;;;;;;;;;;15.20;51.00;;;;;;5090080;28;20015;-86
2022/11/11 07:39:26;;;;;;;;;;;15.30;50.90;;;;;;5085200;28;19986;-89
2022/11/11 07:41:51;;;;;;;;;;;15.40;50.80;;;;;;5070943;28;19959;-89
2022/11/11 07:44:17;;;;;;;;;;;15.50;50.60;;;;;;5076215;28;20460;-89
2022/11/11 07:46:42;;;;;;;;;;;15.60;50.60;;;;;;5069993;28;19932;-87
2022/11/11 07:49:08;;;;;;;;;;;15.70;50.30;;;;;;5069310;28;19919;-88
2022/11/11 07:51:33;;;;;;;;;;;15.80;50.20;;;;;;5084057;28;19981;-88
2022/11/11 07:53:59;;;;;;;;;;;15.90;49.90;;;;;;5090971;28;20282;-86
2022/11/11 07:56:25;;;;;;;;;;;16.00;49.70;;;;;;5088401;28;19916;-86
2022/11/11 07:58:50;;;;;;;;;;;16.10;49.60;;;;;;5070320;28;19912;-88
2022/11/11 08:01:16;;;;;;;;;;;16.20;49.20;;;;;;5082701;28;20392;-85
2022/11/11 08:03:51;;;;;;;;;;;16.30;48.80;;;;;;5087700;28;19955;-89
2022/11/11 08:06:20;;;;;;;;;;;16.40;48.60;;;;;;5075250;28;19931;-90
2022/11/11 08:08:45;;;;;;;;;;;16.50;48.40;;;;;;5070776;28;19923;-88
2022/11/11 08:11:12;;;;;;;;;;;16.60;48.40;;;;;;5086506;28;20300;-90
2022/11/11 08:13:40;;;;;;;;;;;16.70;48.00;;;;;;5090121;28;20516;-88
2022/11/11 08:16:07;;;;;;;;;;;16.70;47.40;;;;;;5089017;28;19920;-88
2022/11/11 08:18:33;;;;;;;;;;;16.90;47.30;;;;;;5083776;28;19931;-87
2022/11/11 08:20:59;;;;;;;;;;;17.00;47.00;;;;;;5078558;28;19927;-85
2022/11/11 08:23:31;;;;;;;;;;;17.10;46.70;;;;;;5080255;28;19912;-87
2022/11/11 08:26:00;;;;;;;;;;;17.20;46.60;;;;;;5084855;28;19920;-88
2022/11/11 08:28:26;;;;;;;;;;;17.30;46.50;;;;;;5084152;28;19999;-88
2022/11/11 08:30:52;;;;;;;;;;;17.40;46.10;;;;;;5070406;28;19924;-90
2022/11/11 08:33:17;;;;;;;;;;;17.50;46.00;;;;;;5073542;28;19932;-89
2022/11/11 08:35:43;;;;;;;;;;;17.50;45.70;;;;;;5088757;28;19928;-87
2022/11/11 08:38:09;;;;;;;;;;;17.70;45.70;;;;;;5087530;28;19993;-86
2022/11/11 08:40:35;;;;;;;;;;;17.80;45.60;;;;;;5080107;28;19957;-88
2022/11/11 08:43:00;;;;;;;;;;;17.90;45.20;;;;;;5076195;28;19916;-86
2022/11/11 08:45:26;;;;;;;;;;;18.00;45.30;;;;;;5076641;28;19920;-88
2022/11/11 08:47:52;;;;;;;;;;;18.10;45.00;;;;;;5070720;28;19919;-87
2022/11/11 08:50:17;;;;;;;;;;;18.30;44.90;;;;;;5072441;28;19931;-89
2022/11/11 08:52:47;;;;;;;;;;;18.40;44.40;;;;;;5078310;28;19920;-88
2022/11/11 08:55:12;;;;;;;;;;;18.50;44.10;;;;;;5071856;28;19920;-87
2022/11/11 08:57:38;;;;;;;;;;;18.60;43.90;;;;;;5068345;28;19916;-87
2022/11/11 09:00:04;;;;;;;;;;;18.70;43.70;;;;;;5086602;28;19930;-87
2022/11/11 09:02:30;;;;;;;;;;;18.80;43.50;;;;;;5068877;28;19916;-86
2022/11/11 09:04:55;;;;;;;;;;;18.90;43.30;;;;;;5070362;28;20023;-88
2022/11/11 09:07:21;;;;;;;;;;;19.00;42.90;;;;;;5069989;28;19912;-87
2022/11/11 09:09:47;;;;;;;;;;;19.10;42.70;;;;;;5076323;28;19920;-88
2022/11/11 09:12:12;;;;;;;;;;;19.20;42.10;;;;;;5091326;28;19978;-88
2022/11/11 09:14:38;;;;;;;;;;;19.30;42.40;;;;;;5072698;28;19935;-88
2022/11/11 09:17:04;;;;;;;;;;;19.50;42.30;;;;;;5087621;28;19920;-88
2022/11/11 09:19:34;;;;;;;;;;;19.70;42.50;;;;;;5098728;28;20341;-86
2022/11/11 09:22:01;;;;;;;;;;;19.80;42.20;;;;;;5078339;28;20007;-86
2022/11/11 09:24:27;;;;;;;;;;;19.90;41.60;;;;;;5086583;28;20011;-87
2022/11/11 09:26:52;;;;;;;;;;;20.00;41.40;;;;;;5085452;28;20281;-89
2022/11/11 09:29:18;;;;;;;;;;;20.10;41.40;;;;;;5095350;28;19912;-87
2022/11/11 09:31:44;;;;;;;;;;;20.20;40.70;;;;;;5094778;28;19924;-88
2022/11/11 09:34:10;;;;;;;;;;;20.30;40.70;;;;;;5079939;28;20368;-88
2022/11/11 09:36:35;;;;;;;;;;;20.30;40.10;;;;;;5086680;28;20414;-87
2022/11/11 09:39:01;;;;;;;;;;;20.30;39.90;;;;;;5097633;28;19918;-89
2022/11/11 09:41:29;;;;;;;;;;;20.40;39.50;;;;;;5094619;28;19920;-88
2022/11/11 09:43:56;;;;;;;;;;;20.50;39.60;;;;;;5093323;28;20282;-89
2022/11/11 09:46:31;;;;;;;;;;;20.60;39.70;;;;;;5075714;28;19921;-87
2022/11/11 09:48:59;;;;;;;;;;;20.70;39.10;;;;;;5088327;28;19912;-89
2022/11/11 09:51:28;;;;;;;;;;;20.80;38.80;;;;;;5089745;28;19917;-88
2022/11/11 09:53:57;;;;;;;;;;;20.90;38.80;;;;;;5094938;28;19919;-88
2022/11/11 09:56:25;;;;;;;;;;;21.10;38.60;;;;;;5095072;28;20648;-90
2022/11/11 09:58:52;;;;;;;;;;;21.20;37.50;;;;;;5090331;28;19971;-88
2022/11/11 10:01:28;;;;;;;;;;;21.30;37.30;;;;;;5111973;28;19931;-89
2022/11/11 10:04:04;;;;;;;;;;;21.40;37.60;;;;;;5113990;28;20320;-88
2022/11/11 10:06:31;;;;;;;;;;;21.60;37.30;;;;;;5094471;28;19978;-87
2022/11/11 10:09:01;;;;;;;;;;;21.70;37.20;;;;;;5101323;28;19950;-88
2022/11/11 10:11:47;;;;;;;;;;;22.00;37.10;;;;;;5091747;28;20434;-86
2022/11/11 10:14:13;;;;;;;;;;;22.00;35.90;;;;;;5100838;28;19934;-88
2022/11/11 10:16:43;;;;;;;;;;;22.20;36.10;;;;;;5093035;28;20023;-89
2022/11/11 10:19:23;;;;;;;;;;;22.30;35.60;;;;;;5097623;28;19959;-88
2022/11/11 10:21:59;;;;;;;;;;;22.50;35.40;;;;;;5077719;28;19927;-88
2022/11/11 10:24:32;;;;;;;;;;;22.70;35.40;;;;;;5093364;28;19916;-87
2022/11/11 10:27:10;;;;;;;;;;;22.80;34.60;;;;;;5091022;28;19920;-87
2022/11/11 10:29:43;;;;;;;;;;;23.10;34.90;;;;;;5101287;28;19962;-89
2022/11/11 10:32:08;;;;;;;;;;;23.30;33.90;;;;;;5088579;28;19924;-88
2022/11/11 10:34:34;;;;;;;;;;;23.50;34.30;;;;;;5085074;28;19928;-89
2022/11/11 10:37:00;;;;;;;;;;;23.80;33.80;;;;;;5087410;28;19912;-88
2022/11/11 10:39:45;;;;;;;;;;;24.00;33.70;;;;;;5088239;28;19955;-89
2022/11/11 10:42:14;;;;;;;;;;;24.30;33.60;;;;;;5071674;28;19931;-89
2022/11/11 10:44:41;;;;;;;;;;;24.50;33.10;;;;;;5081929;28;19920;-90
2022/11/11 10:47:13;;;;;;;;;;;24.50;31.90;;;;;;5083070;28;19916;-87
2022/11/11 10:49:42;;;;;;;;;;;24.60;32.20;;;;;;5101130;28;19969;-88
2022/11/11 10:52:19;;;;;;;;;;;24.80;32.30;;;;;;5108906;28;20035;-88
2022/11/11 10:54:49;;;;;;;;;;;24.90;32.50;;;;;;5095386;28;19928;-87
2022/11/11 10:57:17;;;;;;;;;;;25.20;32.50;;;;;;5085631;28;19961;-88
2022/11/11 10:59:49;;;;;;;;;;;25.20;32.00;;;;;;5083466;28;20397;-88
2022/11/11 11:02:23;;;;;;;;;;;25.30;31.60;;;;;;5076294;28;19920;-89
2022/11/11 11:04:52;;;;;;;;;;;25.30;31.60;;;;;;5093990;28;19946;-88
2022/11/11 11:07:20;;;;;;;;;;;25.20;31.40;;;;;;5086907;28;19926;-89
2022/11/11 11:10:04;;;;;;;;;;;25.10;31.10;;;;;;5083291;28;20011;-88
2022/11/11 11:12:35;;;;;;;;;;;25.10;31.20;;;;;;5070037;28;19916;-88
2022/11/11 11:15:04;;;;;;;;;;;25.10;31.40;;;;;;5093978;28;19927;-87
2022/11/11 11:17:50;;;;;;;;;;;25.00;31.10;;;;;;5083387;28;19918;-87
2022/11/11 11:20:19;;;;;;;;;;;25.00;30.80;;;;;;5074733;28;19919;-88
2022/11/11 11:22:44;;;;;;;;;;;24.90;31.00;;;;;;5073991;28;20050;-88
2022/11/11 11:25:11;;;;;;;;;;;24.90;31.00;;;;;;5090042;28;20006;-89
2022/11/11 11:27:36;;;;;;;;;;;24.90;31.20;;;;;;5090451;28;19912;-88
2022/11/11 11:30:09;;;;;;;;;;;24.90;31.20;;;;;;5092254;28;19920;-88
2022/11/11 11:32:35;;;;;;;;;;;24.90;31.30;;;;;;5093241;28;19937;-88
2022/11/11 11:35:01;;;;;;;;;;;25.00;31.50;;;;;;5089311;28;19920;-86
2022/11/11 11:37:26;;;;;;;;;;;25.20;31.60;;;;;;5085506;28;19935;-88
2022/11/11 11:39:59;;;;;;;;;;;25.20;31.30;;;;;;5078108;28;20024;-87
2022/11/11 11:42:31;;;;;;;;;;;25.10;31.30;;;;;;5068945;28;19918;-89
2022/11/11 11:44:58;;;;;;;;;;;25.20;31.60;;;;;;5069527;28;19924;-89
2022/11/11 11:47:33;;;;;;;;;;;25.30;31.80;;;;;;5082222;28;20019;-89
2022/11/11 11:50:17;;;;;;;;;;;25.30;31.50;;;;;;5089201;28;20370;-88
2022/11/11 11:52:51;;;;;;;;;;;25.30;31.70;;;;;;5072806;28;19924;-88
2022/11/11 11:55:20;;;;;;;;;;;25.20;31.30;;;;;;5080255;28;19927;-89
2022/11/11 11:57:54;;;;;;;;;;;24.90;31.20;;;;;;5077795;28;19916;-87
2022/11/11 12:00:24;;;;;;;;;;;24.80;31.40;;;;;;5097267;28;20583;-89
2022/11/11 12:03:15;;;;;;;;;;;24.70;31.70;;;;;;5073273;28;19923;-87
2022/11/11 12:05:43;;;;;;;;;;;24.70;32.20;;;;;;5088682;28;19911;-89
2022/11/11 12:08:15;;;;;;;;;;;24.50;32.30;;;;;;5074675;28;19937;-89
2022/11/11 12:10:48;;;;;;;;;;;24.10;32.10;;;;;;5083787;28;20303;-87
2022/11/11 12:13:32;;;;;;;;;;;23.80;32.40;;;;;;5077441;28;19924;-87
2022/11/11 12:16:05;;;;;;;;;;;23.50;32.80;;;;;;5080920;28;19924;-85
2022/11/11 12:18:53;;;;;;;;;;;23.20;33.30;;;;;;5076057;28;20540;-87
2022/11/11 12:21:22;;;;;;;;;;;23.00;33.60;;;;;;5065732;28;19929;-88
2022/11/11 12:24:17;;;;;;;;;;;22.80;33.90;;;;;;5082201;28;19927;-88
2022/11/11 12:26:51;;;;;;;;;;;22.70;34.20;;;;;;5073689;28;19920;-88
2022/11/11 12:29:29;;;;;;;;;;;22.60;34.40;;;;;;5091330;28;19908;-89
2022/11/11 12:31:57;;;;;;;;;;;22.50;34.60;;;;;;5076252;28;20314;-86
2022/11/11 12:34:44;;;;;;;;;;;22.40;34.80;;;;;;5084297;28;19971;-88
2022/11/11 12:37:33;;;;;;;;;;;22.30;35.00;;;;;;5078906;28;19916;-89
2022/11/11 12:40:17;;;;;;;;;;;22.30;35.30;;;;;;5080628;28;19931;-88
2022/11/11 12:42:58;;;;;;;;;;;22.40;35.50;;;;;;5073854;28;19916;-88
2022/11/11 12:45:29;;;;;;;;;;;22.40;35.60;;;;;;5083741;28;19946;-88
2022/11/11 12:47:55;;;;;;;;;;;22.40;35.60;;;;;;5082136;28;19916;-88
2022/11/11 12:50:28;;;;;;;;;;;22.40;35.60;;;;;;5089240;28;19988;-88
2022/11/11 12:53:08;;;;;;;;;;;22.40;35.50;;;;;;5091168;28;19920;-88
2022/11/11 12:55:46;;;;;;;;;;;22.40;35.30;;;;;;5084566;28;19924;-89
2022/11/11 12:58:19;;;;;;;;;;;22.30;35.10;;;;;;5089470;28;19913;-87
2022/11/11 13:01:01;;;;;;;;;;;22.30;35.10;;;;;;5081793;28;19924;-88
2022/11/11 13:03:46;;;;;;;;;;;22.30;35.20;;;;;;5072321;28;19923;-88
2022/11/11 13:06:32;;;;;;;;;;;22.30;35.20;;;;;;5095072;28;19939;-87
2022/11/11 13:09:16;;;;;;;;;;;22.30;34.90;;;;;;5093948;28;19986;-88
2022/11/11 13:11:54;;;;;;;;;;;22.30;35.10;;;;;;5095235;28;19920;-87
2022/11/11 13:14:38;;;;;;;;;;;22.30;34.70;;;;;;5094143;28;20481;-88
2022/11/11 13:17:08;;;;;;;;;;;22.30;34.70;;;;;;5076502;28;19916;-87
2022/11/11 13:19:40;;;;;;;;;;;22.30;34.90;;;;;;5078237;28;19965;-88
2022/11/11 13:22:11;;;;;;;;;;;22.30;35.00;;;;;;5081556;28;20405;-89
2022/11/11 13:24:36;;;;;;;;;;;22.30;35.00;;;;;;5082251;28;19927;-88
2022/11/11 13:27:04;;;;;;;;;;;22.30;35.00;;;;;;5087938;28;19912;-89
2022/11/11 13:29:38;;;;;;;;;;;22.30;34.80;;;;;;5089255;28;19919;-88
2022/11/11 13:32:07;;;;;;;;;;;22.30;34.60;;;;;;5087045;28;20040;-88
2022/11/11 13:34:36;;;;;;;;;;;22.30;34.40;;;;;;5080103;28;19928;-88
2022/11/11 13:37:05;;;;;;;;;;;22.30;34.30;;;;;;5088022;28;19912;-88
2022/11/11 13:39:33;;;;;;;;;;;22.20;34.30;;;;;;5087079;28;19923;-89
2022/11/11 13:41:59;;;;;;;;;;;22.20;34.20;;;;;;5086792;28;19916;-87
2022/11/11 13:44:30;;;;;;;;;;;22.20;34.30;;;;;;5085064;28;20892;-87
2022/11/11 13:47:09;;;;;;;;;;;22.10;34.30;;;;;;5070513;28;20366;-88
2022/11/11 13:49:37;;;;;;;;;;;22.00;34.30;;;;;;5068100;28;19920;-90
2022/11/11 13:52:04;;;;;;;;;;;22.00;34.40;;;;;;5067066;28;20263;-89
2022/11/11 13:54:39;;;;;;;;;;;22.00;34.50;;;;;;5067003;28;19924;-86
2022/11/11 13:57:08;;;;;;;;;;;22.00;34.60;;;;;;5071665;28;19919;-86
2022/11/11 13:59:36;;;;;;;;;;;21.90;34.60;;;;;;5087272;28;19920;-87
2022/11/11 14:02:34;;;;;;;;;;;21.90;34.70;;;;;;5088896;28;19912;-87
2022/11/11 14:04:59;;;;;;;;;;;21.80;34.70;;;;;;5065467;28;20010;-89
2022/11/11 14:07:43;;;;;;;;;;;21.80;34.80;;;;;;5085187;28;20024;-87
2022/11/11 14:10:18;;;;;;;;;;;21.70;34.90;;;;;;5077795;28;19920;-88
2022/11/11 14:12:44;;;;;;;;;;;21.60;35.10;;;;;;5085943;28;19916;-86
2022/11/11 14:15:28;;;;;;;;;;;21.50;35.20;;;;;;5073130;28;20291;-86
2022/11/11 14:17:54;;;;;;;;;;;21.40;35.00;;;;;;5075173;28;19920;-87
2022/11/11 14:20:31;;;;;;;;;;;21.30;35.10;;;;;;5069743;28;19943;-88
2022/11/11 14:23:15;;;;;;;;;;;21.30;35.10;;;;;;5081357;28;19922;-88
2022/11/11 14:25:40;;;;;;;;;;;21.20;35.30;;;;;;5091084;28;19958;-88
2022/11/11 14:28:22;;;;;;;;;;;21.10;35.30;;;;;;5089575;28;20410;-88
2022/11/11 14:30:48;;;;;;;;;;;21.10;35.40;;;;;;5069447;28;19931;-88
2022/11/11 14:33:22;;;;;;;;;;;20.90;35.70;;;;;;5075942;28;20585;-88
2022/11/11 14:36:03;;;;;;;;;;;20.90;35.80;;;;;;5077320;28;20318;-87
2022/11/11 14:38:48;;;;;;;;;;;20.80;36.00;;;;;;5083535;28;19916;-87
2022/11/11 14:41:37;;;;;;;;;;;20.80;36.10;;;;;;5072179;28;19920;-89
2022/11/11 14:44:22;;;;;;;;;;;20.70;36.30;;;;;;5087051;28;19912;-88
2022/11/11 14:47:06;;;;;;;;;;;20.70;36.40;;;;;;5074705;28;20410;-88
2022/11/11 14:49:44;;;;;;;;;;;20.60;36.50;;;;;;5077085;28;19924;-89
2022/11/11 14:52:30;;;;;;;;;;;20.50;36.60;;;;;;5087461;28;19955;-87
2022/11/11 14:55:02;;;;;;;;;;;20.50;36.70;;;;;;5080169;28;20082;-88
2022/11/11 14:57:36;;;;;;;;;;;20.40;36.70;;;;;;5074869;28;19942;-88
2022/11/11 15:00:22;;;;;;;;;;;20.40;36.80;;;;;;5070082;28;19928;-88
2022/11/11 15:02:50;;;;;;;;;;;20.30;36.90;;;;;;5069374;28;20728;-87
2022/11/11 15:05:24;;;;;;;;;;;20.30;37.00;;;;;;5071341;28;20023;-88
2022/11/11 15:08:00;;;;;;;;;;;20.20;37.00;;;;;;5072860;28;19916;-87
2022/11/11 15:10:36;;;;;;;;;;;20.10;37.20;;;;;;5079845;28;19957;-88
2022/11/11 15:13:15;;;;;;;;;;;20.00;37.20;;;;;;5079131;28;20491;-89
2022/11/11 15:15:47;;;;;;;;;;;20.00;37.40;;;;;;5113615;28;19937;-87
2022/11/11 15:18:14;;;;;;;;;;;19.90;37.50;;;;;;5113714;28;19911;-88
2022/11/11 15:20:54;;;;;;;;;;;19.80;37.60;;;;;;5079845;28;19959;-87
2022/11/11 15:23:24;;;;;;;;;;;19.80;37.90;;;;;;5093675;28;19919;-89
2022/11/11 15:26:05;;;;;;;;;;;19.70;38.10;;;;;;5092210;28;19923;-89
2022/11/11 15:28:50;;;;;;;;;;;19.60;38.20;;;;;;5093792;28;19908;-89
2022/11/11 15:31:22;;;;;;;;;;;19.50;38.30;;;;;;5086922;28;19920;-89
2022/11/11 15:34:00;;;;;;;;;;;19.40;38.50;;;;;;5080083;28;19920;-91
2022/11/11 15:37:04;;;;;;;;;;;19.30;38.60;;;;;;5085256;28;20015;-89
2022/11/11 15:39:35;;;;;;;;;;;19.20;38.90;;;;;;5060743;28;20055;-87
2022/11/11 15:42:01;;;;;;;;;;;19.00;39.20;;;;;;5053763;28;19995;-88
2022/11/11 15:44:28;;;;;;;;;;;18.90;39.30;;;;;;5078312;28;20010;-88